PWSweather.com
Personal Weather Stations
Station Observations
PENICUIKWS
PenicuikGB

PenicuikGB

Lat: 55.830932, Lon: -3.224533000000065

Elevation: 166

Station Type: Fine Offset

http://weather.penicuik.org

Latest ConditionsUpdated 10:15:00 PM GMT Sunday, Jan 20, 2019
Currently Today's Max Today's Min Today's Average
Temperature 29.7°F-1.3°C 50.9°F10.5°C 29.7°F-1.3°C 35.9°F2.2°C
Dew Point 26.0°F-3.3°C 38.6°F3.7°C 25.9°F-3.4°C 30.9°F-0.6°C
Winds 0.4 mph SW0.6 kmh SW 3.2 mph -5.1 kmh - - 1.0 mph 1.6 kmh
Wind Gusts 1.6 mph2.6 kmh 6.0 mph9.7 kmh - -
Humidity 86% 87% 62% 82%
Pressure 30.27 in1025.1 mb 30.27 in1025.1 mb 29.91 in1012.9 mb -
Hour Temp Dew Point Humidity Winds Wind Gusts Pressure Precip Precip Rate Daily Precip Total
10:15 PM 29.7°F-1.3°C 26.0°F-3.3°C 86% 0.4 mph SW0.6 kmh SW 1.6 mph2.6 kmh 30.27 in1025.1 mb 0.00 in0.0 mm 0.00 in0.0 mm 0.00 in0.0 mm
10:00 PM 29.8°F-1.2°C 26.2°F-3.2°C 86% 0.2 mph SW0.3 kmh SW 1.6 mph2.6 kmh 30.27 in1025.1 mb 0.00 in0.0 mm 0.00 in0.0 mm 0.00 in0.0 mm
09:45 PM 30.4°F-0.9°C 26.4°F-3.1°C 85% 0.7 mph SSW1.1 kmh SSW 1.6 mph2.6 kmh 30.26 in1024.7 mb 0.00 in0.0 mm 0.00 in0.0 mm 0.00 in0.0 mm
09:30 PM 30.6°F-0.8°C 26.6°F-3.0°C 85% 0.5 mph WSW0.8 kmh WSW 1.6 mph2.6 kmh 30.26 in1024.7 mb 0.00 in0.0 mm 0.00 in0.0 mm 0.00 in0.0 mm
09:15 PM 30.2°F-1.0°C 26.3°F-3.2°C 85% 0.2 mph WSW0.3 kmh WSW 1.6 mph2.6 kmh 30.26 in1024.7 mb 0.00 in0.0 mm 0.00 in0.0 mm 0.00 in0.0 mm
09:00 PM 30.2°F-1.0°C 26.0°F-3.3°C 84% 0.8 mph NNW1.3 kmh NNW 1.6 mph2.6 kmh 30.26 in1024.7 mb 0.00 in0.0 mm 0.00 in0.0 mm 0.00 in0.0 mm
08:45 PM 30.6°F-0.8°C 26.3°F-3.2°C 84% 0.4 mph N0.6 kmh N 1.6 mph2.6 kmh 30.25 in1024.4 mb 0.00 in0.0 mm 0.00 in0.0 mm 0.00 in0.0 mm
08:30 PM 30.7°F-0.7°C 26.2°F-3.2°C 83% 0.2 mph WSW0.3 kmh WSW 0.7 mph1.1 kmh 30.24 in1024.0 mb 0.00 in0.0 mm 0.00 in0.0 mm 0.00 in0.0 mm
08:15 PM 30.7°F-0.7°C 26.2°F-3.2°C 83% 0.9 mph NW1.4 kmh NW 1.6 mph2.6 kmh 30.24 in1024.0 mb 0.00 in0.0 mm 0.00 in0.0 mm 0.00 in0.0 mm
08:00 PM 30.9°F-0.6°C 26.1°F-3.3°C 82% 1.1 mph WSW1.8 kmh WSW 1.6 mph2.6 kmh 30.22 in1023.4 mb 0.00 in0.0 mm 0.00 in0.0 mm 0.00 in0.0 mm
07:45 PM 30.7°F-0.7°C 25.9°F-3.4°C 82% 0.7 mph SW1.1 kmh SW 1.6 mph2.6 kmh 30.22 in1023.4 mb 0.00 in0.0 mm 0.00 in0.0 mm 0.00 in0.0 mm
07:30 PM 31.3°F-0.4°C 26.4°F-3.1°C 82% 0.6 mph SW1.0 kmh SW 1.6 mph2.6 kmh 30.22 in1023.4 mb 0.00 in0.0 mm 0.00 in0.0 mm 0.00 in0.0 mm
07:15 PM 32.4°F0.2°C 27.2°F-2.7°C 81% 0.5 mph SW0.8 kmh SW 1.6 mph2.6 kmh 30.21 in1023.0 mb 0.00 in0.0 mm 0.00 in0.0 mm 0.00 in0.0 mm
07:00 PM 33.4°F0.8°C 28.3°F-2.1°C 81% 1.2 mph SW1.9 kmh SW 1.6 mph2.6 kmh 30.20 in1022.7 mb 0.00 in0.0 mm 0.00 in0.0 mm 0.00 in0.0 mm
06:45 PM 34.3°F1.3°C 29.1°F-1.6°C 81% 1.1 mph SSW1.8 kmh SSW 1.6 mph2.6 kmh 30.20 in1022.7 mb 0.00 in0.0 mm 0.00 in0.0 mm 0.00 in0.0 mm
06:30 PM 34.5°F1.4°C 29.3°F-1.5°C 81% Calm Calm 0.7 mph1.1 kmh 30.19 in1022.4 mb 0.00 in0.0 mm 0.00 in0.0 mm 0.00 in0.0 mm
06:15 PM 34.9°F1.6°C 29.7°F-1.3°C 81% 0.6 mph SW1.0 kmh SW 1.6 mph2.6 kmh 30.20 in1022.7 mb 0.00 in0.0 mm 0.00 in0.0 mm 0.00 in0.0 mm
06:00 PM 34.9°F1.6°C 29.7°F-1.3°C 81% 0.6 mph SSW1.0 kmh SSW 2.2 mph3.5 kmh 30.20 in1022.7 mb 0.00 in0.0 mm 0.00 in0.0 mm 0.00 in0.0 mm
05:45 PM 35.8°F2.1°C 30.2°F-1.0°C 80% 0.3 mph SW0.5 kmh SW 0.7 mph1.1 kmh 30.19 in1022.4 mb 0.00 in0.0 mm 0.00 in0.0 mm 0.00 in0.0 mm
05:30 PM 37.2°F2.9°C 31.6°F-0.2°C 80% 1.2 mph SW1.9 kmh SW 1.6 mph2.6 kmh 30.18 in1022.0 mb 0.00 in0.0 mm 0.00 in0.0 mm 0.00 in0.0 mm
05:15 PM 38.1°F3.4°C 33.7°F0.9°C 84% Calm Calm -- 30.19 in1022.4 mb 0.00 in0.0 mm 0.00 in0.0 mm 0.00 in0.0 mm
05:00 PM 39.0°F3.9°C 34.6°F1.4°C 84% 0.6 mph SW1.0 kmh SW 2.2 mph3.5 kmh 30.17 in1021.7 mb 0.00 in0.0 mm 0.00 in0.0 mm 0.00 in0.0 mm
04:45 PM 39.4°F4.1°C 34.4°F1.3°C 82% 0.1 mph SW0.2 kmh SW 0.7 mph1.1 kmh 30.16 in1021.3 mb 0.00 in0.0 mm 0.00 in0.0 mm 0.00 in0.0 mm
04:30 PM 39.4°F4.1°C 34.4°F1.3°C 82% 0.1 mph SSW0.2 kmh SSW 1.6 mph2.6 kmh 30.15 in1021.0 mb 0.00 in0.0 mm 0.00 in0.0 mm 0.00 in0.0 mm
04:15 PM 39.9°F4.4°C 34.9°F1.6°C 82% 0.6 mph WSW1.0 kmh WSW 1.6 mph2.6 kmh 30.15 in1021.0 mb 0.00 in0.0 mm 0.00 in0.0 mm 0.00 in0.0 mm
04:00 PM 40.3°F4.6°C 35.2°F1.8°C 82% 0.6 mph SW1.0 kmh SW 1.6 mph2.6 kmh 30.14 in1020.7 mb 0.00 in0.0 mm 0.00 in0.0 mm 0.00 in0.0 mm
03:45 PM 40.6°F4.8°C 35.3°F1.8°C 81% 1.0 mph WSW1.6 kmh WSW 2.2 mph3.5 kmh 30.14 in1020.7 mb 0.00 in0.0 mm 0.00 in0.0 mm 0.00 in0.0 mm
03:30 PM 41.2°F5.1°C 35.5°F1.9°C 80% 1.0 mph W1.6 kmh W 2.2 mph3.5 kmh 30.13 in1020.3 mb 0.00 in0.0 mm 0.00 in0.0 mm 0.00 in0.0 mm
03:15 PM 41.4°F5.2°C 35.7°F2.1°C 80% 1.0 mph WSW1.6 kmh WSW 2.2 mph3.5 kmh 30.12 in1020.0 mb 0.00 in0.0 mm 0.00 in0.0 mm 0.00 in0.0 mm
03:00 PM 41.4°F5.2°C 35.7°F2.1°C 80% 1.4 mph SW2.3 kmh SW 2.2 mph3.5 kmh 30.11 in1019.6 mb 0.00 in0.0 mm 0.00 in0.0 mm 0.00 in0.0 mm
02:45 PM 41.4°F5.2°C 36.0°F2.2°C 81% 1.2 mph S1.9 kmh S 2.2 mph3.5 kmh 30.12 in1020.0 mb 0.00 in0.0 mm 0.00 in0.0 mm 0.00 in0.0 mm
02:30 PM 41.2°F5.1°C 35.8°F2.1°C 81% 1.4 mph S2.3 kmh S 3.8 mph6.1 kmh 30.12 in1020.0 mb 0.00 in0.0 mm 0.00 in0.0 mm 0.00 in0.0 mm
02:15 PM 41.4°F5.2°C 36.0°F2.2°C 81% 1.6 mph SW2.6 kmh SW 3.1 mph5.0 kmh 30.11 in1019.6 mb 0.00 in0.0 mm 0.00 in0.0 mm 0.00 in0.0 mm
02:00 PM 41.5°F5.3°C 36.2°F2.3°C 81% 2.4 mph S3.9 kmh S 3.8 mph6.1 kmh 30.11 in1019.6 mb 0.00 in0.0 mm 0.00 in0.0 mm 0.00 in0.0 mm
01:45 PM 42.1°F5.6°C 37.0°F2.8°C 82% 1.9 mph S3.1 kmh S 3.1 mph5.0 kmh 30.10 in1019.3 mb 0.00 in0.0 mm 0.00 in0.0 mm 0.00 in0.0 mm
01:30 PM 41.9°F5.5°C 36.5°F2.5°C 81% 2.5 mph SW4.0 kmh SW 4.5 mph7.2 kmh 30.09 in1019.0 mb 0.00 in0.0 mm 0.00 in0.0 mm 0.00 in0.0 mm
01:15 PM 41.4°F5.2°C 35.7°F2.1°C 80% 2.4 mph S3.9 kmh S 4.5 mph7.2 kmh 30.09 in1019.0 mb 0.00 in0.0 mm 0.00 in0.0 mm 0.00 in0.0 mm
01:00 PM 41.0°F5.0°C 34.7°F1.5°C 78% 1.4 mph N2.3 kmh N 2.2 mph3.5 kmh 30.09 in1019.0 mb 0.00 in0.0 mm 0.00 in0.0 mm 0.00 in0.0 mm
12:45 PM 41.2°F5.1°C 34.5°F1.4°C 77% 2.2 mph WNW3.5 kmh WNW 3.8 mph6.1 kmh 30.09 in1019.0 mb 0.00 in0.0 mm 0.00 in0.0 mm 0.00 in0.0 mm
12:30 PM 41.5°F5.3°C 34.2°F1.2°C 75% 2.4 mph WNW3.9 kmh WNW 3.8 mph6.1 kmh 30.07 in1018.3 mb 0.00 in0.0 mm 0.00 in0.0 mm 0.00 in0.0 mm
12:15 PM 42.1°F5.6°C 33.7°F0.9°C 72% 2.6 mph W4.2 kmh W 4.5 mph7.2 kmh 30.07 in1018.3 mb 0.00 in0.0 mm 0.00 in0.0 mm 0.00 in0.0 mm
12:00 PM 43.7°F6.5°C 32.7°F0.4°C 65% 2.6 mph SW4.2 kmh SW 4.5 mph7.2 kmh 30.07 in1018.3 mb 0.00 in0.0 mm 0.00 in0.0 mm 0.00 in0.0 mm
11:45 AM 50.9°F10.5°C 38.4°F3.6°C 62% 3.2 mph WSW5.1 kmh WSW 4.5 mph7.2 kmh 30.07 in1018.3 mb 0.00 in0.0 mm 0.00 in0.0 mm 0.00 in0.0 mm
11:30 AM 46.8°F8.2°C 38.6°F3.7°C 73% 1.8 mph SSW2.9 kmh SSW 3.1 mph5.0 kmh 30.07 in1018.3 mb 0.00 in0.0 mm 0.00 in0.0 mm 0.00 in0.0 mm
11:15 AM 42.1°F5.6°C 37.6°F3.1°C 84% 3.2 mph S5.1 kmh S 6.0 mph9.7 kmh 30.06 in1017.9 mb 0.00 in0.0 mm 0.00 in0.0 mm 0.00 in0.0 mm
11:00 AM 37.8°F3.2°C 34.2°F1.2°C 87% 3.2 mph S5.1 kmh S 5.4 mph8.7 kmh 30.06 in1017.9 mb 0.00 in0.0 mm 0.00 in0.0 mm 0.00 in0.0 mm
10:45 AM 35.4°F1.9°C 31.1°F-0.5°C 84% 1.5 mph NE2.4 kmh NE 3.8 mph6.1 kmh 30.06 in1017.9 mb 0.00 in0.0 mm 0.00 in0.0 mm 0.00 in0.0 mm
10:30 AM 35.4°F1.9°C 31.1°F-0.5°C 84% 2.2 mph SSE3.5 kmh SSE 4.5 mph7.2 kmh 30.06 in1017.9 mb 0.00 in0.0 mm 0.00 in0.0 mm 0.00 in0.0 mm
10:15 AM 35.8°F2.1°C 31.1°F-0.5°C 83% 2.2 mph WSW3.5 kmh WSW 3.8 mph6.1 kmh 30.05 in1017.6 mb 0.00 in0.0 mm 0.00 in0.0 mm 0.00 in0.0 mm
10:00 AM 34.7°F1.5°C 30.4°F-0.9°C 84% 2.7 mph SW4.3 kmh SW 4.5 mph7.2 kmh 30.05 in1017.6 mb 0.00 in0.0 mm 0.00 in0.0 mm 0.00 in0.0 mm
09:45 AM 34.7°F1.5°C 30.4°F-0.9°C 84% 2.1 mph N3.4 kmh N 3.1 mph5.0 kmh 30.04 in1017.3 mb 0.00 in0.0 mm 0.00 in0.0 mm 0.00 in0.0 mm
09:30 AM 34.7°F1.5°C 30.4°F-0.9°C 84% 2.3 mph W3.7 kmh W 3.8 mph6.1 kmh 30.03 in1016.9 mb 0.00 in0.0 mm 0.00 in0.0 mm 0.00 in0.0 mm
09:15 AM 34.7°F1.5°C 30.4°F-0.9°C 84% 2.3 mph SSW3.7 kmh SSW 3.8 mph6.1 kmh 30.04 in1017.3 mb 0.00 in0.0 mm 0.00 in0.0 mm 0.00 in0.0 mm
09:00 AM 34.7°F1.5°C 30.1°F-1.1°C 83% 2.3 mph WSW3.7 kmh WSW 3.8 mph6.1 kmh 30.03 in1016.9 mb 0.00 in0.0 mm 0.00 in0.0 mm 0.00 in0.0 mm
08:45 AM 34.3°F1.3°C 29.7°F-1.3°C 83% 1.1 mph NE1.8 kmh NE 3.1 mph5.0 kmh 30.02 in1016.6 mb 0.00 in0.0 mm 0.00 in0.0 mm 0.00 in0.0 mm
08:30 AM 34.5°F1.4°C 29.9°F-1.2°C 83% 1.4 mph WSW2.3 kmh WSW 3.1 mph5.0 kmh 30.02 in1016.6 mb 0.00 in0.0 mm 0.00 in0.0 mm 0.00 in0.0 mm
08:15 AM 34.7°F1.5°C 29.8°F-1.2°C 82% 1.8 mph SW2.9 kmh SW 3.8 mph6.1 kmh 30.02 in1016.6 mb 0.00 in0.0 mm 0.00 in0.0 mm 0.00 in0.0 mm
08:00 AM 34.5°F1.4°C 29.6°F-1.3°C 82% 2.5 mph SW4.0 kmh SW 4.5 mph7.2 kmh 30.01 in1016.3 mb 0.00 in0.0 mm 0.00 in0.0 mm 0.00 in0.0 mm
07:45 AM 34.7°F1.5°C 29.8°F-1.2°C 82% 1.2 mph WSW1.9 kmh WSW 2.2 mph3.5 kmh 30.01 in1016.3 mb 0.00 in0.0 mm 0.00 in0.0 mm 0.00 in0.0 mm
07:30 AM 34.5°F1.4°C 29.6°F-1.3°C 82% 0.8 mph SSW1.3 kmh SSW 1.6 mph2.6 kmh 30.00 in1015.9 mb 0.00 in0.0 mm 0.00 in0.0 mm 0.00 in0.0 mm
07:15 AM 34.5°F1.4°C 29.6°F-1.3°C 82% 0.7 mph S1.1 kmh S 3.1 mph5.0 kmh 29.99 in1015.6 mb 0.00 in0.0 mm 0.00 in0.0 mm 0.00 in0.0 mm
07:01 AM 34.7°F1.5°C 29.8°F-1.2°C 82% 1.7 mph WSW2.7 kmh WSW 2.2 mph3.5 kmh 30.00 in1015.9 mb 0.00 in0.0 mm 0.00 in0.0 mm 0.00 in0.0 mm
07:00 AM 34.7°F1.5°C 29.8°F-1.2°C 82% 1.8 mph SW2.9 kmh SW 3.8 mph6.1 kmh 30.00 in1015.9 mb 0.00 in0.0 mm 0.00 in0.0 mm 0.00 in0.0 mm
06:45 AM 34.7°F1.5°C 30.1°F-1.1°C 83% 1.2 mph ENE1.9 kmh ENE 3.1 mph5.0 kmh 29.99 in1015.6 mb 0.00 in0.0 mm 0.00 in0.0 mm 0.00 in0.0 mm
06:30 AM 34.7°F1.5°C 30.1°F-1.1°C 83% 1.3 mph SSW2.1 kmh SSW 1.6 mph2.6 kmh 29.98 in1015.2 mb 0.00 in0.0 mm 0.00 in0.0 mm 0.00 in0.0 mm
06:15 AM 34.7°F1.5°C 30.1°F-1.1°C 83% 0.7 mph SE1.1 kmh SE 1.6 mph2.6 kmh 29.98 in1015.2 mb 0.00 in0.0 mm 0.00 in0.0 mm 0.00 in0.0 mm
06:01 AM 34.7°F1.5°C 30.1°F-1.1°C 83% 0.5 mph N0.8 kmh N 2.2 mph3.5 kmh 29.97 in1014.9 mb 0.00 in0.0 mm 0.00 in0.0 mm 0.00 in0.0 mm
06:00 AM 34.7°F1.5°C 30.1°F-1.1°C 83% 0.5 mph NNW0.8 kmh NNW 2.2 mph3.5 kmh 29.98 in1015.2 mb 0.00 in0.0 mm 0.00 in0.0 mm 0.00 in0.0 mm
05:45 AM 34.7°F1.5°C 30.4°F-0.9°C 84% 0.9 mph N1.4 kmh N 2.2 mph3.5 kmh 29.96 in1014.6 mb 0.00 in0.0 mm 0.00 in0.0 mm 0.00 in0.0 mm
05:31 AM 34.7°F1.5°C 30.4°F-0.9°C 84% 1.2 mph E1.9 kmh E 1.6 mph2.6 kmh 29.96 in1014.6 mb 0.00 in0.0 mm 0.00 in0.0 mm 0.00 in0.0 mm
05:30 AM 34.7°F1.5°C 30.4°F-0.9°C 84% 1.1 mph ENE1.8 kmh ENE 2.2 mph3.5 kmh 29.96 in1014.6 mb 0.00 in0.0 mm 0.00 in0.0 mm 0.00 in0.0 mm
05:29 AM 34.7°F1.5°C 30.4°F-0.9°C 84% 1.1 mph ENE1.8 kmh ENE 2.2 mph3.5 kmh 29.96 in1014.6 mb 0.00 in0.0 mm 0.00 in0.0 mm 0.00 in0.0 mm
05:15 AM 34.7°F1.5°C 30.4°F-0.9°C 84% 0.5 mph WNW0.8 kmh WNW 1.6 mph2.6 kmh 29.95 in1014.2 mb 0.00 in0.0 mm 0.00 in0.0 mm 0.00 in0.0 mm
05:14 AM 34.7°F1.5°C 30.4°F-0.9°C 84% 0.4 mph WSW0.6 kmh WSW 1.6 mph2.6 kmh 29.95 in1014.2 mb 0.00 in0.0 mm 0.00 in0.0 mm 0.00 in0.0 mm
05:01 AM 34.7°F1.5°C 30.1°F-1.1°C 83% 0.8 mph S1.3 kmh S 2.2 mph3.5 kmh 29.95 in1014.2 mb 0.00 in0.0 mm 0.00 in0.0 mm 0.00 in0.0 mm
05:00 AM 34.7°F1.5°C 30.1°F-1.1°C 83% 0.5 mph S0.8 kmh S 2.2 mph3.5 kmh 29.96 in1014.6 mb 0.00 in0.0 mm 0.00 in0.0 mm 0.00 in0.0 mm
04:59 AM 34.7°F1.5°C 30.1°F-1.1°C 83% 0.5 mph S0.8 kmh S 2.2 mph3.5 kmh 29.96 in1014.6 mb 0.00 in0.0 mm 0.00 in0.0 mm 0.00 in0.0 mm
04:45 AM 34.7°F1.5°C 30.1°F-1.1°C 83% Calm Calm -- 29.95 in1014.2 mb 0.00 in0.0 mm 0.00 in0.0 mm 0.00 in0.0 mm
04:31 AM 34.7°F1.5°C 30.1°F-1.1°C 83% 0.3 mph S0.5 kmh S 1.6 mph2.6 kmh 29.95 in1014.2 mb 0.00 in0.0 mm 0.00 in0.0 mm 0.00 in0.0 mm
04:30 AM 34.7°F1.5°C 30.1°F-1.1°C 83% 0.3 mph S0.5 kmh S 1.6 mph2.6 kmh 29.95 in1014.2 mb 0.00 in0.0 mm 0.00 in0.0 mm 0.00 in0.0 mm
04:15 AM 34.7°F1.5°C 30.1°F-1.1°C 83% 0.1 mph SE0.2 kmh SE 0.7 mph1.1 kmh 29.95 in1014.2 mb 0.00 in0.0 mm 0.00 in0.0 mm 0.00 in0.0 mm
04:01 AM 34.7°F1.5°C 30.1°F-1.1°C 83% Calm Calm 0.7 mph1.1 kmh 29.94 in1013.9 mb 0.00 in0.0 mm 0.00 in0.0 mm 0.00 in0.0 mm
04:00 AM 34.7°F1.5°C 30.1°F-1.1°C 83% Calm Calm -- 29.94 in1013.9 mb 0.00 in0.0 mm 0.00 in0.0 mm 0.00 in0.0 mm
03:45 AM 34.7°F1.5°C 30.1°F-1.1°C 83% 0.6 mph S1.0 kmh S 1.6 mph2.6 kmh 29.95 in1014.2 mb 0.00 in0.0 mm 0.00 in0.0 mm 0.00 in0.0 mm
03:30 AM 34.7°F1.5°C 30.1°F-1.1°C 83% 0.5 mph SSE0.8 kmh SSE 1.6 mph2.6 kmh 29.94 in1013.9 mb 0.00 in0.0 mm 0.00 in0.0 mm 0.00 in0.0 mm
03:15 AM 34.7°F1.5°C 29.8°F-1.2°C 82% 0.2 mph SW0.3 kmh SW 0.7 mph1.1 kmh 29.94 in1013.9 mb 0.00 in0.0 mm 0.00 in0.0 mm 0.00 in0.0 mm
03:01 AM 34.7°F1.5°C 29.8°F-1.2°C 82% Calm Calm -- 29.94 in1013.9 mb 0.00 in0.0 mm 0.00 in0.0 mm 0.00 in0.0 mm
03:00 AM 34.7°F1.5°C 29.8°F-1.2°C 82% Calm Calm -- 29.94 in1013.9 mb 0.00 in0.0 mm 0.00 in0.0 mm 0.00 in0.0 mm
02:45 AM 34.7°F1.5°C 29.8°F-1.2°C 82% 0.2 mph S0.3 kmh S 0.7 mph1.1 kmh 29.94 in1013.9 mb 0.00 in0.0 mm 0.00 in0.0 mm 0.00 in0.0 mm
02:31 AM 34.7°F1.5°C 29.8°F-1.2°C 82% Calm Calm -- 29.93 in1013.5 mb 0.00 in0.0 mm 0.00 in0.0 mm 0.00 in0.0 mm
02:30 AM 34.7°F1.5°C 29.8°F-1.2°C 82% Calm Calm -- 29.93 in1013.5 mb 0.00 in0.0 mm 0.00 in0.0 mm 0.00 in0.0 mm
02:15 AM 34.7°F1.5°C 29.8°F-1.2°C 82% Calm Calm -- 29.93 in1013.5 mb 0.00 in0.0 mm 0.00 in0.0 mm 0.00 in0.0 mm
02:00 AM 34.7°F1.5°C 29.8°F-1.2°C 82% 0.6 mph S1.0 kmh S 1.6 mph2.6 kmh 29.92 in1013.2 mb 0.00 in0.0 mm 0.00 in0.0 mm 0.00 in0.0 mm
01:45 AM 34.7°F1.5°C 29.8°F-1.2°C 82% Calm Calm -- 29.92 in1013.2 mb 0.00 in0.0 mm 0.00 in0.0 mm 0.00 in0.0 mm
01:30 AM 34.7°F1.5°C 29.8°F-1.2°C 82% Calm Calm -- 29.92 in1013.2 mb 0.00 in0.0 mm 0.00 in0.0 mm 0.00 in0.0 mm
01:15 AM 35.4°F1.9°C 30.5°F-0.8°C 82% 0.3 mph SE0.5 kmh SE 1.6 mph2.6 kmh 29.92 in1013.2 mb 0.00 in0.0 mm 0.00 in0.0 mm 0.00 in0.0 mm
01:00 AM 35.4°F1.9°C 30.5°F-0.8°C 82% 0.2 mph SE0.3 kmh SE 0.7 mph1.1 kmh 29.92 in1013.2 mb 0.00 in0.0 mm 0.00 in0.0 mm 0.00 in0.0 mm
12:45 AM 35.4°F1.9°C 30.2°F-1.0°C 81% Calm Calm -- 29.92 in1013.2 mb 0.00 in0.0 mm 0.00 in0.0 mm 0.00 in0.0 mm
12:30 AM 35.4°F1.9°C 30.2°F-1.0°C 81% Calm Calm -- 29.91 in1012.9 mb 0.00 in0.0 mm 0.00 in0.0 mm 0.00 in0.0 mm
12:15 AM 35.4°F1.9°C 30.2°F-1.0°C 81% Calm Calm -- 29.92 in1013.2 mb 0.00 in0.0 mm 0.00 in0.0 mm 0.00 in0.0 mm
12:00 AM 35.4°F1.9°C 30.2°F-1.0°C 81% Calm Calm -- 29.91 in1012.9 mb 0.00 in0.0 mm 0.00 in0.0 mm 0.00 in0.0 mm